createdAt,value
2023-03-12T00:04:28.351Z,9.60
2023-03-12T00:09:34.791Z,11.00
2023-03-12T00:14:38.494Z,16.70
2023-03-12T00:19:41.755Z,7.40
2023-03-12T00:24:50.064Z,17.90
2023-03-12T00:29:53.602Z,8.10
2023-03-12T00:34:57.330Z,12.20
2023-03-12T00:40:01.634Z,14.30
2023-03-12T00:45:04.888Z,15.70
2023-03-12T00:50:08.047Z,14.00
2023-03-12T00:55:10.838Z,11.00
2023-03-12T01:00:14.099Z,13.50
2023-03-12T01:05:18.909Z,11.60
2023-03-12T01:10:22.070Z,15.00
2023-03-12T01:15:26.270Z,10.30
2023-03-12T01:20:30.913Z,9.70
2023-03-12T01:25:35.303Z,14.50
2023-03-12T01:30:37.675Z,18.60
2023-03-12T01:35:41.767Z,12.60
2023-03-12T01:40:46.536Z,13.20
2023-03-12T01:46:24.793Z,14.30
2023-03-12T01:51:49.542Z,13.60
2023-03-12T01:56:54.251Z,9.50
2023-03-12T02:01:58.489Z,14.90
2023-03-12T02:07:03.960Z,13.20
2023-03-12T02:12:09.156Z,12.60
2023-03-12T02:17:12.318Z,13.60
2023-03-12T02:22:16.226Z,18.40
2023-03-12T02:27:23.238Z,14.90
2023-03-12T02:32:31.408Z,9.90
2023-03-12T02:37:35.147Z,15.70
2023-03-12T02:42:39.513Z,16.60
2023-03-12T02:47:42.455Z,13.50
2023-03-12T02:52:45.469Z,9.70
2023-03-12T02:57:50.091Z,10.50
2023-03-12T03:02:54.449Z,11.10
2023-03-12T03:07:57.116Z,8.90
2023-03-12T03:13:00.144Z,10.60
2023-03-12T03:18:04.274Z,6.30
2023-03-12T03:23:07.240Z,11.80
2023-03-12T03:28:11.727Z,7.70
2023-03-12T03:33:15.151Z,10.90
2023-03-12T03:38:17.672Z,10.50
2023-03-12T03:43:22.723Z,12.40
2023-03-12T03:48:26.315Z,11.50
2023-03-12T03:53:29.849Z,11.20
2023-03-12T03:58:33.084Z,5.40
2023-03-12T04:03:36.291Z,12.30
2023-03-12T04:08:40.501Z,11.50
2023-03-12T04:13:44.423Z,10.40
2023-03-12T04:18:46.687Z,14.90
2023-03-12T04:23:50.463Z,9.20
2023-03-12T04:28:53.013Z,10.10
2023-03-12T04:33:55.412Z,10.00
2023-03-12T04:38:58.541Z,6.80
2023-03-12T04:44:02.425Z,9.50
2023-03-12T04:49:05.795Z,9.50
2023-03-12T04:54:09.343Z,8.70
2023-03-12T04:59:12.397Z,7.00
2023-03-12T05:04:15.230Z,8.70
2023-03-12T05:09:18.613Z,5.80
2023-03-12T05:14:20.571Z,9.60
2023-03-12T05:19:24.222Z,11.10
2023-03-12T05:24:28.236Z,8.10
2023-03-12T05:29:34.984Z,7.90
2023-03-12T05:34:36.798Z,9.20
2023-03-12T05:39:39.089Z,7.40
2023-03-12T05:44:41.896Z,4.60
2023-03-12T05:49:44.284Z,5.60
2023-03-12T05:54:46.475Z,4.50
2023-03-12T05:59:48.659Z,8.30
2023-03-12T06:04:50.539Z,7.30
2023-03-12T06:09:54.145Z,9.00
2023-03-12T06:15:00.240Z,4.60
2023-03-12T06:20:02.872Z,6.10
2023-03-12T06:25:06.539Z,8.90
2023-03-12T06:30:09.992Z,7.20
2023-03-12T06:35:13.678Z,7.50
2023-03-12T06:40:17.457Z,4.10
2023-03-12T06:45:19.706Z,7.40
2023-03-12T06:50:21.558Z,13.30
2023-03-12T06:55:23.590Z,4.80
2023-03-12T07:00:28.198Z,5.10
2023-03-12T07:05:33.404Z,5.40
2023-03-12T07:10:36.211Z,5.80
2023-03-12T07:15:42.772Z,8.90
2023-03-12T07:20:47.946Z,4.90
2023-03-12T07:25:52.941Z,4.90
2023-03-12T07:31:04.089Z,3.60
2023-03-12T07:36:08.575Z,3.60
2023-03-12T07:41:13.389Z,4.20
2023-03-12T07:46:17.314Z,4.10
2023-03-12T07:51:19.762Z,2.50
2023-03-12T07:56:22.655Z,8.20
2023-03-12T08:01:32.540Z,3.90
2023-03-12T08:06:35.327Z,3.90
2023-03-12T08:11:37.685Z,12.40
2023-03-12T08:16:40.505Z,3.70
2023-03-12T08:21:44.054Z,4.40
2023-03-12T08:26:46.604Z,3.80
2023-03-12T08:32:03.828Z,2.60
2023-03-12T08:37:08.013Z,3.70
2023-03-12T08:42:10.266Z,3.00
2023-03-12T08:47:12.997Z,3.40
2023-03-12T08:52:16.324Z,3.90
2023-03-12T08:57:18.878Z,5.50
2023-03-12T09:02:22.600Z,4.50
2023-03-12T09:07:24.986Z,1.20
2023-03-12T09:12:27.679Z,4.90
2023-03-12T09:17:31.587Z,1.80
2023-03-12T09:22:36.722Z,3.30
2023-03-12T09:27:45.928Z,3.00
2023-03-12T09:32:48.520Z,4.30
2023-03-12T09:37:51.498Z,2.50
2023-03-12T09:42:59.854Z,5.00
2023-03-12T09:48:06.288Z,4.50
2023-03-12T09:53:48.789Z,3.00
2023-03-12T09:58:55.066Z,3.60
2023-03-12T10:04:24.049Z,3.10
2023-03-12T10:09:50.841Z,1.60
2023-03-12T10:15:32.029Z,4.00
2023-03-12T10:20:35.116Z,2.00
2023-03-12T10:25:59.412Z,4.90
2023-03-12T10:31:07.598Z,2.30
2023-03-12T10:36:19.937Z,4.60
2023-03-12T10:41:26.150Z,5.40
2023-03-12T10:46:51.412Z,3.80
2023-03-12T10:52:23.826Z,2.10
2023-03-12T10:57:41.935Z,2.10
2023-03-12T11:02:45.818Z,4.80
2023-03-12T11:07:48.453Z,3.20
2023-03-12T11:12:56.331Z,3.20
2023-03-12T11:18:27.429Z,1.60
2023-03-12T11:23:30.743Z,9.70
2023-03-12T11:28:39.688Z,3.20
2023-03-12T11:33:42.134Z,5.70
2023-03-12T11:39:01.876Z,3.80
2023-03-12T11:44:16.778Z,3.30
2023-03-12T11:49:36.949Z,10.00
2023-03-12T11:55:16.639Z,4.50
2023-03-12T12:00:32.773Z,1.60
2023-03-12T12:05:43.234Z,2.40
2023-03-12T12:11:05.843Z,4.30
2023-03-12T12:16:23.519Z,4.00
2023-03-12T12:21:49.103Z,3.90
2023-03-12T12:27:06.238Z,6.10
2023-03-12T12:32:17.097Z,6.60
2023-03-12T12:37:42.947Z,2.50
2023-03-12T12:43:17.387Z,2.60
2023-03-12T12:48:31.942Z,4.40
2023-03-12T12:53:48.744Z,2.40
2023-03-12T12:58:58.994Z,5.90
2023-03-12T13:04:27.577Z,5.20
2023-03-12T13:09:46.067Z,3.50
2023-03-12T13:14:49.933Z,9.60
2023-03-12T13:20:01.495Z,2.60
2023-03-12T13:25:16.959Z,5.40
2023-03-12T13:30:34.568Z,5.40
2023-03-12T13:35:38.610Z,4.10
2023-03-12T13:41:07.495Z,4.00
2023-03-12T13:46:15.443Z,4.30
2023-03-12T13:51:21.336Z,4.50
2023-03-12T13:56:32.555Z,4.70
2023-03-12T14:01:42.396Z,2.00
2023-03-12T14:07:23.695Z,6.70
2023-03-12T14:12:38.198Z,7.10
2023-03-12T14:17:47.162Z,3.60
2023-03-12T14:22:58.128Z,4.40
2023-03-12T14:28:02.792Z,3.00
2023-03-12T14:33:09.564Z,3.40
2023-03-12T14:38:35.331Z,3.90
2023-03-12T14:43:49.300Z,6.00
2023-03-12T14:48:58.936Z,7.70
2023-03-12T14:54:05.856Z,10.30
2023-03-12T14:59:29.432Z,6.30
2023-03-12T15:04:35.061Z,7.80
2023-03-12T15:09:44.051Z,6.70
2023-03-12T15:14:48.498Z,9.20
2023-03-12T15:19:55.006Z,4.80
2023-03-12T15:25:03.239Z,7.00
2023-03-12T15:30:27.924Z,7.60
2023-03-12T15:35:31.266Z,4.50
2023-03-12T15:40:33.774Z,4.20
2023-03-12T15:45:39.325Z,2.70
2023-03-12T15:50:44.147Z,5.60
2023-03-12T15:56:24.000Z,4.50
2023-03-12T16:01:28.384Z,11.20
2023-03-12T16:06:32.114Z,6.90
2023-03-12T16:11:38.298Z,10.00
2023-03-12T16:16:40.700Z,6.50
2023-03-12T16:21:43.913Z,6.10
2023-03-12T16:26:56.177Z,6.90
2023-03-12T16:31:58.538Z,5.50
2023-03-12T16:37:01.701Z,5.10
2023-03-12T16:42:12.114Z,6.90
2023-03-12T16:47:14.829Z,8.40
2023-03-12T16:52:22.627Z,4.70
2023-03-12T16:57:36.668Z,9.30
2023-03-12T17:02:39.282Z,7.30
2023-03-12T17:07:44.373Z,6.30
2023-03-12T17:12:48.832Z,5.50
2023-03-12T17:17:52.346Z,4.80
2023-03-12T17:22:55.140Z,7.50
2023-03-12T17:28:01.072Z,9.10
2023-03-12T17:33:10.782Z,7.10
2023-03-12T17:38:14.825Z,11.40
2023-03-12T17:43:17.283Z,8.30
2023-03-12T17:48:19.727Z,14.70
2023-03-12T17:53:22.601Z,11.90
2023-03-12T17:58:24.313Z,20.50
2023-03-12T18:03:28.295Z,19.00
2023-03-12T18:08:31.259Z,15.10
2023-03-12T18:13:34.028Z,9.90
2023-03-12T18:18:36.432Z,16.30
2023-03-12T18:23:39.633Z,14.60
2023-03-12T18:28:44.221Z,15.50
2023-03-12T18:33:49.129Z,16.00
2023-03-12T18:38:52.952Z,21.00
2023-03-12T18:43:56.478Z,20.60
2023-03-12T18:49:08.333Z,24.10
2023-03-12T18:54:12.340Z,19.10
2023-03-12T18:59:15.166Z,18.30
2023-03-12T19:04:19.070Z,15.00
2023-03-12T19:09:21.732Z,16.00
2023-03-12T19:14:25.815Z,15.30
2023-03-12T19:19:27.899Z,17.00
2023-03-12T19:24:31.202Z,17.30
2023-03-12T19:29:33.980Z,22.10
2023-03-12T19:34:36.424Z,22.10
2023-03-12T19:39:41.755Z,26.40
2023-03-12T19:44:46.274Z,20.10
2023-03-12T19:49:48.534Z,15.80
2023-03-12T19:55:03.433Z,16.20
2023-03-12T20:00:09.708Z,18.60
2023-03-12T20:05:16.453Z,23.20
2023-03-12T20:15:24.028Z,21.70
2023-03-12T20:20:26.861Z,30.10
2023-03-12T20:25:29.991Z,43.40
2023-03-12T20:30:35.605Z,34.60
2023-03-12T20:35:38.318Z,18.10
2023-03-12T20:40:45.109Z,24.80
2023-03-12T20:45:48.303Z,13.10
2023-03-12T20:50:50.997Z,14.10
2023-03-12T20:55:54.058Z,15.80
2023-03-12T21:00:59.685Z,12.90
2023-03-12T21:06:03.201Z,16.60
2023-03-12T21:11:07.867Z,14.40
2023-03-12T21:16:11.509Z,13.90
2023-03-12T21:21:15.169Z,17.20
2023-03-12T21:26:19.127Z,10.30
2023-03-12T21:31:27.038Z,13.30
2023-03-12T21:36:29.458Z,11.80
2023-03-12T21:41:32.403Z,11.90
2023-03-12T21:46:36.837Z,9.10
2023-03-12T21:51:40.317Z,10.20
2023-03-12T21:56:44.079Z,9.20
2023-03-12T22:01:47.055Z,17.60
2023-03-12T22:06:51.576Z,9.20
2023-03-12T22:11:54.491Z,14.00
2023-03-12T22:16:59.264Z,11.00
2023-03-12T22:22:02.186Z,13.80
2023-03-12T22:27:07.525Z,14.40
2023-03-12T22:32:10.585Z,14.20
2023-03-12T22:37:13.791Z,8.00
2023-03-12T22:42:16.967Z,13.40
2023-03-12T22:47:19.803Z,10.90
2023-03-12T22:52:22.231Z,14.80
2023-03-12T22:57:24.109Z,15.60
2023-03-12T23:02:26.239Z,16.00
2023-03-12T23:07:30.714Z,11.10
2023-03-12T23:12:34.040Z,10.80
2023-03-12T23:17:38.250Z,6.40
2023-03-12T23:22:41.634Z,11.40
2023-03-12T23:27:44.788Z,13.20
2023-03-12T23:32:46.829Z,6.80
2023-03-12T23:37:51.809Z,9.30
2023-03-12T23:42:55.100Z,10.90
2023-03-12T23:47:58.445Z,8.20
2023-03-12T23:53:01.194Z,10.60
2023-03-12T23:58:02.967Z,12.80
